West Point, MS (39773)

2:08 PM CDT on August 29, 2015 (GMT -0500)
WestWood II | | Change Station
CLOSE
Current Station
Personal Weather Station
Location: West Point, MS
Elevation: 240 ft
Nearby Weather Stations

Elev 240 ft 33.61 °N, 88.68 °W | Updated 8 seconds ago

Partly Cloudy
Partly Cloudy
92.8 °F
Feels Like 103 °F
N
2.2
Wind Variable Wind from NE
Gusts 2.7 mph

Today
High -- | Low -- °F
--% Chance of Precip.
Yesterday
High -- | Low -- °F
Precip. -- in
6:26 AM 7:24 PM
Full, 100% visible
Pressure 30.07 in
Visibility 10.0 miles
Clouds Scattered Clouds 4200 ft
Scattered Clouds 6500 ft
Heat Index 103 °F
Dew Point 74 °F
Humidity 54%
Rainfall 0.00 in
Snow Depth Not available.
UV 8 out of 12
Pollen 8.80 out of 12
Air Quality Not available.
Flu Activity Not available.
METAR KSTF 291855Z AUTO 15004KT 10SM SCT042 SCT065 31/20 A3007 RMK AO2
Pressure 30.07 in
Visibility 10.0 miles
Clouds Scattered Clouds 4200 ft
Scattered Clouds 6500 ft
Heat Index 103 °F
Dew Point 74 °F
Humidity 54%
Rainfall 0.00 in
Snow Depth Not available.
UV 8 out of 12
Pollen 8.80 out of 12
Air Quality Not available.
Flu Activity Not available.
METAR KSTF 291855Z AUTO 15004KT 10SM SCT042 SCT065 31/20 A3007 RMK AO2

10-Day Weather Forecast

×

Almanac

Astronomy

Aug. 29, 2015 Rise Set
Actual Time
Civil Twilight
Nautical Twilight
Astronomical Twilight
Moon
Length of Visible Light
Length of Day
Tomorrow will be .
, % of the Moon is Illuminated

Today's Extremes

State Highs State Lows

Community

WunderPhotos

Upload Photos

1,850,777 photos uploaded!

WunderBlogs® & News

Nearby

Air Quality

  Air Quality AQ Index Pollutant
Not available.

Snow Depth

Station Depth Elevation

Earthquake Activity

City Distance Mag. Time & Date
Minimum magnitude displayed is 2.5.

Coastal Water Temperatures

Place Temperature

Stations

Nearby Weather Stations

Station Location Temp. Windchill Dew Point Humidity Wind Precip. Elev Updated Type